Main page
METAR-TAF:

METAR-TAF

Airports :

Funafuti, Tuvalu

Funafuti International Airport

latitude: 08-31S, longitude: 179-13E, elevation: 1 m

Current weather observation

The report was made 50 minutes ago, at 11:00 UTC
Calm wind
Temperature 29°C
Humidity 79%
Pressure 1010 hPa
Visibility 10 km or more
Few clouds at a height of 2000 ft

METAR: NGFU 261100Z 00000KT 9999 FEW020 29/25 Q1010

Time: 23:50 (11:50 UTC)

Forecast

The report was made 53 minutes ago, at 10:57 UTC
Forecast valid from 26 at 12 UTC to 27 at 12 UTC
Wind 8 kt from the East
Visibility 10 km or more
Scattered clouds at a height of 1800 ft
Scattered clouds at a height of 4000 ft
Probability 40% :
Temporary
from 27 at 00 UTC to 27 at 12 UTC
Visibility: 3000 m
Broken clouds at a height of 1500 ft
Few clouds at a height of 1700 ft, Cumulonimbus.
thunderstorm, rain

TAF: NGFU 261057Z 2612/2712 09008KT 9999 SCT018 SCT040 PROB40 TEMPO 2700/2712 3000 TSRA BKN015 FEW017CB

Weather observations and forecasts of more than 4000 airports (METAR and TAF reports).

The available stations are represented by yellow and red dots on the map.

Hover mouse over dot to see the name of the station.

Then click to see weather observations and forecasts.

To change the map : click on the green buttons with a black cross to zoom in, on the green button with a dash to zoom out, or on the green arrows for adjacent maps.


METAR-TAF: